Time;durP1;ratioP1;P1;durP2;ratioP2;P2;SDS_P1;SDS_P2;PMS_P1;PMS_P2;Temp;Humidity;BMP_temperature;BMP_pressure;BME280_temperature;BME280_humidity;BME280_pressure;Samples;Min_cycle;Max_cycle;Signal;HPM_P1;HPM_P2
2021/01/11 09:11:17;;;;;;;;;;;;;;;;;;5066880;28;20376;-72
2021/01/11 09:13:42;;;;;;;17.60;7.88;;;;;;;;;;5051734;28;19923;-70
2021/01/11 09:16:17;;;;;;;21.40;10.57;;;;;;;;;;5052838;28;20086;-71
2021/01/11 09:18:42;;;;;;;16.98;7.00;;;;;;;;;;5060774;28;20086;-71
2021/01/11 09:21:07;;;;;;;21.52;9.63;;;;;;;;;;5059739;28;20063;-70
2021/01/11 09:23:33;;;;;;;15.32;7.53;;;;;;;;;;5031965;28;20021;-71
2021/01/11 09:26:00;;;;;;;15.02;6.95;;;;;;;;;;5048277;28;20150;-71
2021/01/11 09:28:26;;;;;;;15.80;7.22;;;;;;;;;;5048498;28;20032;-71
2021/01/11 09:30:53;;;;;;;13.60;5.53;;;;;;;;;;5060619;28;20058;-71
2021/01/11 09:33:18;;;;;;;8.93;5.50;;;;;;;;;;5059253;28;20557;-70
2021/01/11 09:35:43;;;;;;;11.57;5.35;;;;;;;;;;5060211;28;20051;-71
2021/01/11 09:38:08;;;;;;;12.32;4.88;;;;;;;;;;5060321;28;20023;-70
2021/01/11 09:40:34;;;;;;;13.23;4.07;;;;;;;;;;5059479;28;20495;-71
2021/01/11 09:42:59;;;;;;;7.65;2.80;;;;;;;;;;5058264;28;20838;-71
2021/01/11 09:45:24;;;;;;;6.07;2.20;;;;;;;;;;5052714;28;20521;-71
2021/01/11 09:47:50;;;;;;;11.15;2.60;;;;;;;;;;5045509;28;20044;-71
2021/01/11 09:50:15;;;;;;;7.25;3.08;;;;;;;;;;5059749;28;20049;-71
2021/01/11 09:52:41;;;;;;;9.38;3.28;;;;;;;;;;5061107;28;20012;-71
2021/01/11 09:55:06;;;;;;;14.95;3.17;;;;;;;;;;5060340;28;20035;-71
2021/01/11 09:57:38;;;;;;;6.60;2.50;;;;;;;;;;5044793;28;20110;-71
2021/01/11 10:00:08;;;;;;;9.45;4.28;;;;;;;;;;5058550;28;20028;-71
2021/01/11 10:02:34;;;;;;;13.50;6.90;;;;;;;;;;5060052;28;20029;-71
2021/01/11 10:04:59;;;;;;;10.57;4.40;;;;;;;;;;5058430;28;20048;-71
2021/01/11 10:07:24;;;;;;;7.63;3.95;;;;;;;;;;5049562;28;20159;-71
2021/01/11 10:09:49;;;;;;;9.43;4.30;;;;;;;;;;5055593;28;20103;-70
2021/01/11 10:12:15;;;;;;;9.90;3.35;;;;;;;;;;5060082;28;20033;-71
2021/01/11 10:14:40;;;;;;;5.80;2.03;;;;;;;;;;5045614;28;20052;-71
2021/01/11 10:17:05;;;;;;;7.72;2.22;;;;;;;;;;5040486;28;20037;-71
2021/01/11 10:19:30;;;;;;;6.30;2.22;;;;;;;;;;5043891;28;20930;-71
2021/01/11 10:21:59;;;;;;;6.00;2.05;;;;;;;;;;5034508;28;20124;-71
2021/01/11 10:24:24;;;;;;;4.10;1.80;;;;;;;;;;5031209;28;20453;-70
2021/01/11 10:26:50;;;;;;;5.78;2.03;;;;;;;;;;5032374;28;20068;-71
2021/01/11 10:29:16;;;;;;;12.90;7.03;;;;;;;;;;5028042;28;20120;-71
2021/01/11 10:31:41;;;;;;;10.18;5.75;;;;;;;;;;5020416;28;20040;-70
2021/01/11 10:34:07;;;;;;;7.05;3.50;;;;;;;;;;5029072;28;20041;-72
2021/01/11 10:36:52;;;;;;;6.10;2.80;;;;;;;;;;5029865;28;20024;-71
2021/01/11 10:39:19;;;;;;;6.55;3.63;;;;;;;;;;5013912;28;20060;-71
2021/01/11 10:41:48;;;;;;;7.82;3.60;;;;;;;;;;5037135;28;20093;-71
2021/01/11 10:44:13;;;;;;;8.63;3.53;;;;;;;;;;5040707;28;20020;-70
2021/01/11 10:46:38;;;;;;;6.32;2.15;;;;;;;;;;5047315;28;20157;-72
2021/01/11 10:49:04;;;;;;;8.90;3.15;;;;;;;;;;5043313;28;20044;-72
2021/01/11 10:51:32;;;;;;;6.88;1.63;;;;;;;;;;5039688;28;20029;-70
2021/01/11 10:53:57;;;;;;;8.73;3.28;;;;;;;;;;5047976;28;20037;-72
2021/01/11 10:56:22;;;;;;;5.15;2.75;;;;;;;;;;5047692;28;20039;-71
2021/01/11 10:58:48;;;;;;;7.70;2.33;;;;;;;;;;5047508;28;20025;-71
2021/01/11 11:01:14;;;;;;;9.63;2.05;;;;;;;;;;5039064;28;20124;-71
2021/01/11 11:03:40;;;;;;;7.28;2.42;;;;;;;;;;5036420;28;20068;-70
2021/01/11 11:06:05;;;;;;;7.10;2.90;;;;;;;;;;5039253;28;20021;-71
2021/01/11 11:08:30;;;;;;;8.82;2.90;;;;;;;;;;5032991;28;20033;-71
2021/01/11 11:10:56;;;;;;;10.35;2.03;;;;;;;;;;5042517;28;20048;-71
2021/01/11 11:13:21;;;;;;;4.70;1.70;;;;;;;;;;5032800;28;20021;-71
2021/01/11 11:15:47;;;;;;;6.30;2.45;;;;;;;;;;5034625;28;20057;-70
2021/01/11 11:18:12;;;;;;;5.75;2.10;;;;;;;;;;5040425;28;20041;-71
2021/01/11 11:20:38;;;;;;;12.45;2.60;;;;;;;;;;5030481;28;20041;-69
2021/01/11 11:23:04;;;;;;;5.93;2.10;;;;;;;;;;5030685;28;20029;-71
2021/01/11 11:25:29;;;;;;;4.30;1.85;;;;;;;;;;5046541;28;20264;-71
2021/01/11 11:27:54;;;;;;;7.65;1.98;;;;;;;;;;5035702;28;20029;-71
2021/01/11 11:30:20;;;;;;;7.15;2.08;;;;;;;;;;5040189;28;20059;-71
2021/01/11 11:32:49;;;;;;;6.85;2.08;;;;;;;;;;5042905;28;20033;-71
2021/01/11 11:35:15;;;;;;;8.07;2.22;;;;;;;;;;5030145;28;20056;-71
2021/01/11 11:37:41;;;;;;;11.60;2.20;;;;;;;;;;5035434;28;20067;-69
2021/01/11 11:40:07;;;;;;;7.80;2.50;;;;;;;;;;5036801;28;20486;-71
2021/01/11 11:42:33;;;;;;;14.60;2.70;;;;;;;;;;5042668;28;20031;-70
2021/01/11 11:44:58;;;;;;;6.95;2.78;;;;;;;;;;5046203;28;20027;-71
2021/01/11 11:47:23;;;;;;;9.40;3.30;;;;;;;;;;5024539;28;20041;-70
2021/01/11 11:49:49;;;;;;;5.70;2.65;;;;;;;;;;5035217;28;20025;-70
2021/01/11 11:52:15;;;;;;;8.60;2.97;;;;;;;;;;5023979;28;20029;-70
2021/01/11 11:54:40;;;;;;;9.60;3.25;;;;;;;;;;5043047;28;20040;-71
2021/01/11 11:57:06;;;;;;;9.60;2.78;;;;;;;;;;5045734;28;20073;-71
2021/01/11 11:59:31;;;;;;;7.85;3.70;;;;;;;;;;5045219;28;20552;-71
2021/01/11 12:01:56;;;;;;;12.30;3.95;;;;;;;;;;5042749;28;20457;-71
2021/01/11 12:04:22;;;;;;;13.18;5.20;;;;;;;;;;5033575;28;20021;-71
2021/01/11 12:06:47;;;;;;;21.38;9.40;;;;;;;;;;5044104;28;20056;-69
2021/01/11 12:09:12;;;;;;;16.45;6.45;;;;;;;;;;5024641;28;20506;-70
2021/01/11 12:11:38;;;;;;;14.05;6.72;;;;;;;;;;5032082;28;20993;-71
2021/01/11 12:14:04;;;;;;;13.65;6.20;;;;;;;;;;5044529;28;20037;-71
2021/01/11 12:16:29;;;;;;;12.40;5.32;;;;;;;;;;5038507;28;20048;-72
2021/01/11 12:18:54;;;;;;;8.93;4.40;;;;;;;;;;5043383;28;20453;-71
2021/01/11 12:21:26;;;;;;;13.88;6.70;;;;;;;;;;5042195;28;20037;-71
2021/01/11 12:23:52;;;;;;;16.40;4.97;;;;;;;;;;5034370;28;20036;-70
2021/01/11 12:26:17;;;;;;;13.52;5.53;;;;;;;;;;5045092;28;20466;-71
2021/01/11 12:28:42;;;;;;;13.68;4.03;;;;;;;;;;5033084;28;20029;-71
2021/01/11 12:31:08;;;;;;;8.43;4.72;;;;;;;;;;5037170;28;20083;-71
2021/01/11 12:33:33;;;;;;;9.23;3.40;;;;;;;;;;5029208;28;20626;-71
2021/01/11 12:35:58;;;;;;;7.63;3.20;;;;;;;;;;5028586;28;20025;-71
2021/01/11 12:38:23;;;;;;;6.07;2.13;;;;;;;;;;5024322;28;20040;-72
2021/01/11 12:40:49;;;;;;;4.55;1.73;;;;;;;;;;5029676;28;20052;-70
2021/01/11 12:43:14;;;;;;;4.78;1.40;;;;;;;;;;5028918;28;20030;-71
2021/01/11 12:45:39;;;;;;;4.45;1.70;;;;;;;;;;5020482;28;20051;-71
2021/01/11 12:48:05;;;;;;;7.00;1.38;;;;;;;;;;5028876;28;20096;-71
2021/01/11 12:50:30;;;;;;;6.32;1.52;;;;;;;;;;5033696;28;20474;-71
2021/01/11 12:52:55;;;;;;;2.58;1.30;;;;;;;;;;5029380;28;20033;-71
2021/01/11 12:55:20;;;;;;;27.50;11.98;;;;;;;;;;5029137;28;20022;-71
2021/01/11 12:57:46;;;;;;;10.77;4.85;;;;;;;;;;5026480;28;20033;-71
2021/01/11 13:00:11;;;;;;;5.90;3.08;;;;;;;;;;5021532;28;20444;-71
2021/01/11 13:02:37;;;;;;;5.40;2.03;;;;;;;;;;5026783;28;20083;-72
2021/01/11 13:05:02;;;;;;;5.85;1.52;;;;;;;;;;5028643;28;20086;-70
2021/01/11 13:07:27;;;;;;;6.68;2.20;;;;;;;;;;5014875;28;20041;-71
2021/01/11 13:09:53;;;;;;;7.55;2.28;;;;;;;;;;5029167;28;20049;-71
2021/01/11 13:12:18;;;;;;;9.80;2.60;;;;;;;;;;5028736;28;20025;-71
2021/01/11 13:14:43;;;;;;;10.35;3.03;;;;;;;;;;5028783;28;20080;-71
2021/01/11 13:17:09;;;;;;;5.47;2.25;;;;;;;;;;5026372;28;20021;-72
2021/01/11 13:19:34;;;;;;;8.77;3.28;;;;;;;;;;5029157;28;20077;-71
2021/01/11 13:22:00;;;;;;;8.55;2.80;;;;;;;;;;5029758;28;20037;-71
2021/01/11 13:24:25;;;;;;;7.22;2.63;;;;;;;;;;5027954;28;20025;-70
2021/01/11 13:26:50;;;;;;;10.57;3.88;;;;;;;;;;5016259;28;20363;-71
2021/01/11 13:29:15;;;;;;;8.85;2.78;;;;;;;;;;5018431;28;20034;-70
2021/01/11 13:31:48;;;;;;;10.32;3.03;;;;;;;;;;5023877;28;20079;-69
2021/01/11 13:34:13;;;;;;;7.20;3.05;;;;;;;;;;5020431;28;20041;-72
2021/01/11 13:36:39;;;;;;;11.57;4.82;;;;;;;;;;5012340;28;20080;-71
2021/01/11 13:39:04;;;;;;;8.25;2.80;;;;;;;;;;5017454;28;20139;-72
2021/01/11 13:41:33;;;;;;;9.15;3.50;;;;;;;;;;5025524;28;20029;-69
2021/01/11 13:43:59;;;;;;;10.70;3.95;;;;;;;;;;5018929;28;20490;-71
2021/01/11 13:46:28;;;;;;;11.13;3.47;;;;;;;;;;5018150;28;20032;-71
2021/01/11 13:48:53;;;;;;;12.80;3.65;;;;;;;;;;5018695;28;20033;-71
2021/01/11 13:51:18;;;;;;;9.25;3.05;;;;;;;;;;5016953;28;20037;-71
2021/01/11 13:53:44;;;;;;;9.43;3.20;;;;;;;;;;5024803;28;20021;-71
2021/01/11 13:56:10;;;;;;;10.93;4.55;;;;;;;;;;5020888;28;20045;-71
2021/01/11 13:58:35;;;;;;;19.23;6.05;;;;;;;;;;5023269;28;20033;-71
2021/01/11 14:01:01;;;;;;;10.98;4.50;;;;;;;;;;5027789;28;20424;-70
2021/01/11 14:03:26;;;;;;;7.93;3.65;;;;;;;;;;5009184;28;20033;-72
2021/01/11 14:05:51;;;;;;;6.30;2.35;;;;;;;;;;5029984;28;20036;-70
2021/01/11 14:08:16;;;;;;;12.30;4.55;;;;;;;;;;5019521;28;20060;-70
2021/01/11 14:10:43;;;;;;;23.02;11.68;;;;;;;;;;5026948;28;20238;-71
2021/01/11 14:13:08;;;;;;;8.85;5.13;;;;;;;;;;5022042;28;20072;-70
2021/01/11 14:15:33;;;;;;;5.97;3.72;;;;;;;;;;5025292;28;20144;-71
2021/01/11 14:18:02;;;;;;;7.88;3.40;;;;;;;;;;5033561;28;20021;-71
2021/01/11 14:20:27;;;;;;;10.02;3.60;;;;;;;;;;5012522;28;20041;-70
2021/01/11 14:22:52;;;;;;;9.73;2.55;;;;;;;;;;5026816;28;20030;-71
2021/01/11 14:25:18;;;;;;;7.05;3.25;;;;;;;;;;5026431;28;20431;-71
2021/01/11 14:27:43;;;;;;;8.32;3.35;;;;;;;;;;5024059;28;20033;-71
2021/01/11 14:30:08;;;;;;;10.45;3.97;;;;;;;;;;5010936;28;20883;-70
2021/01/11 14:32:34;;;;;;;9.13;3.58;;;;;;;;;;5028880;28;20026;-71
2021/01/11 14:34:59;;;;;;;8.98;3.33;;;;;;;;;;5022844;28;21573;-70
2021/01/11 14:37:24;;;;;;;8.63;4.30;;;;;;;;;;5032829;28;20028;-71
2021/01/11 14:39:50;;;;;;;30.48;13.48;;;;;;;;;;5021957;28;20045;-70
2021/01/11 14:42:15;;;;;;;8.70;4.20;;;;;;;;;;5031297;28;20041;-71
2021/01/11 14:44:41;;;;;;;10.85;4.63;;;;;;;;;;5030889;28;20035;-71
2021/01/11 14:47:06;;;;;;;11.60;4.28;;;;;;;;;;5033602;28;20029;-72
2021/01/11 14:49:32;;;;;;;13.45;3.90;;;;;;;;;;5031148;28;20044;-70
2021/01/11 14:51:58;;;;;;;7.88;3.22;;;;;;;;;;5037775;28;20101;-71
2021/01/11 14:54:23;;;;;;;9.15;4.28;;;;;;;;;;5047591;28;20029;-71
2021/01/11 14:56:54;;;;;;;8.40;2.88;;;;;;;;;;5047306;28;20037;-71
2021/01/11 14:59:23;;;;;;;8.75;2.85;;;;;;;;;;5043151;28;20129;-71
2021/01/11 15:01:49;;;;;;;4.53;2.10;;;;;;;;;;5046968;28;20450;-71
2021/01/11 15:04:14;;;;;;;9.38;2.63;;;;;;;;;;5038861;28;20041;-71
2021/01/11 15:06:45;;;;;;;7.60;3.17;;;;;;;;;;5030065;28;20029;-71
2021/01/11 15:09:10;;;;;;;11.05;2.67;;;;;;;;;;5038219;28;20398;-71
2021/01/11 15:11:35;;;;;;;6.90;3.20;;;;;;;;;;5042887;28;20060;-70
2021/01/11 15:14:01;;;;;;;9.40;3.47;;;;;;;;;;5038463;28;20104;-71
2021/01/11 15:16:26;;;;;;;14.18;6.47;;;;;;;;;;5028886;28;20068;-71
2021/01/11 15:18:52;;;;;;;8.45;4.20;;;;;;;;;;5047212;28;20033;-72
2021/01/11 15:21:17;;;;;;;11.73;5.25;;;;;;;;;;5047306;28;20037;-71
2021/01/11 15:23:42;;;;;;;12.40;6.05;;;;;;;;;;5046299;28;20120;-70
2021/01/11 15:26:08;;;;;;;7.43;4.47;;;;;;;;;;5048055;28;20037;-71
2021/01/11 15:28:34;;;;;;;5.90;2.50;;;;;;;;;;5047363;28;20025;-71
2021/01/11 15:30:59;;;;;;;9.35;2.15;;;;;;;;;;5039506;28;20393;-71
2021/01/11 15:33:27;;;;;;;6.93;1.63;;;;;;;;;;5046377;28;20040;-72
2021/01/11 15:35:53;;;;;;;6.25;1.42;;;;;;;;;;5040377;28;20021;-71
2021/01/11 15:38:19;;;;;;;4.65;1.92;;;;;;;;;;5042253;28;20028;-71
2021/01/11 15:40:45;;;;;;;8.55;3.00;;;;;;;;;;5039806;28;20076;-71
2021/01/11 15:43:10;;;;;;;6.50;2.28;;;;;;;;;;5042859;28;20036;-71
2021/01/11 15:45:35;;;;;;;3.88;1.45;;;;;;;;;;5038636;28;20033;-70
2021/01/11 15:48:00;;;;;;;13.77;4.65;;;;;;;;;;5046784;28;20396;-71
2021/01/11 15:50:26;;;;;;;5.60;3.42;;;;;;;;;;5036196;28;20025;-71
2021/01/11 15:52:51;;;;;;;7.55;3.10;;;;;;;;;;5045905;28;20132;-71
2021/01/11 15:55:18;;;;;;;5.72;2.17;;;;;;;;;;5047193;28;20032;-71
2021/01/11 15:57:43;;;;;;;3.13;1.90;;;;;;;;;;5046479;28;20025;-71
2021/01/11 16:00:10;;;;;;;7.93;3.10;;;;;;;;;;5045708;28;20116;-72
2021/01/11 16:02:35;;;;;;;5.07;2.00;;;;;;;;;;5044196;28;20033;-71
2021/01/11 16:05:01;;;;;;;14.13;7.97;;;;;;;;;;5045844;28;20028;-71
2021/01/11 16:07:26;;;;;;;19.92;11.63;;;;;;;;;;5046252;28;20036;-71
2021/01/11 16:09:53;;;;;;;8.45;5.75;;;;;;;;;;5035892;28;20049;-71
2021/01/11 16:12:18;;;;;;;7.22;3.80;;;;;;;;;;5044023;28;20036;-71
2021/01/11 16:14:45;;;;;;;9.52;5.38;;;;;;;;;;5045538;28;20025;-71
2021/01/11 16:17:10;;;;;;;7.90;4.53;;;;;;;;;;5032673;28;20045;-71
2021/01/11 16:19:35;;;;;;;6.47;2.80;;;;;;;;;;5039478;28;20033;-71
2021/01/11 16:22:01;;;;;;;6.53;2.63;;;;;;;;;;5041733;28;20053;-71
2021/01/11 16:24:26;;;;;;;3.28;1.35;;;;;;;;;;5046018;28;20393;-71
2021/01/11 16:26:52;;;;;;;4.55;2.60;;;;;;;;;;5046099;28;20365;-71
2021/01/11 16:29:17;;;;;;;3.28;2.03;;;;;;;;;;5046292;28;20033;-71
2021/01/11 16:31:42;;;;;;;9.70;5.68;;;;;;;;;;5038229;28;20689;-71
2021/01/11 16:34:08;;;;;;;8.18;5.22;;;;;;;;;;5045451;28;20025;-72
2021/01/11 16:36:36;;;;;;;5.35;2.55;;;;;;;;;;5043598;28;20036;-71
2021/01/11 16:39:01;;;;;;;5.30;3.08;;;;;;;;;;5042376;28;20477;-70
2021/01/11 16:41:28;;;;;;;5.55;3.45;;;;;;;;;;5041272;28;20047;-72
2021/01/11 16:43:54;;;;;;;3.78;2.50;;;;;;;;;;5045447;28;20159;-72
2021/01/11 16:46:20;;;;;;;4.18;1.85;;;;;;;;;;5045945;28;20452;-71
2021/01/11 16:48:45;;;;;;;3.65;2.45;;;;;;;;;;5045680;28;20025;-72
2021/01/11 16:51:14;;;;;;;5.82;2.40;;;;;;;;;;5046049;28;20031;-71
2021/01/11 16:53:40;;;;;;;4.75;2.00;;;;;;;;;;5037549;28;20568;-71
2021/01/11 16:56:05;;;;;;;3.42;1.92;;;;;;;;;;5045445;28;20101;-69
2021/01/11 16:58:31;;;;;;;3.35;1.58;;;;;;;;;;5046121;28;20032;-71
2021/01/11 17:00:56;;;;;;;3.85;1.30;;;;;;;;;;5045622;28;20885;-71
2021/01/11 17:03:22;;;;;;;4.45;1.88;;;;;;;;;;5045597;28;20393;-71
2021/01/11 17:05:47;;;;;;;5.88;2.22;;;;;;;;;;5045087;28;20059;-71
2021/01/11 17:08:13;;;;;;;5.00;1.77;;;;;;;;;;5045538;28;20029;-71
2021/01/11 17:10:38;;;;;;;9.68;1.90;;;;;;;;;;5037965;28;20125;-71
2021/01/11 17:13:04;;;;;;;5.22;2.13;;;;;;;;;;5045210;28;20033;-71
2021/01/11 17:15:29;;;;;;;7.72;2.10;;;;;;;;;;5045199;28;20398;-71
2021/01/11 17:17:54;;;;;;;5.57;2.28;;;;;;;;;;5036407;28;20025;-71
2021/01/11 17:20:20;;;;;;;6.35;2.03;;;;;;;;;;5041053;28;20049;-71
2021/01/11 17:22:45;;;;;;;6.13;2.30;;;;;;;;;;5045012;28;20059;-71
2021/01/11 17:25:11;;;;;;;5.53;2.35;;;;;;;;;;5046255;28;20025;-71
2021/01/11 17:27:39;;;;;;;5.88;2.78;;;;;;;;;;5045634;28;20055;-69
2021/01/11 17:30:05;;;;;;;7.22;2.70;;;;;;;;;;5045301;28;20063;-71
2021/01/11 17:32:30;;;;;;;6.60;3.42;;;;;;;;;;5047914;28;20037;-71
2021/01/11 17:34:55;;;;;;;5.60;2.97;;;;;;;;;;5048333;28;20079;-71
2021/01/11 17:37:21;;;;;;;7.07;2.85;;;;;;;;;;5049584;28;20051;-71
2021/01/11 17:39:46;;;;;;;9.05;2.55;;;;;;;;;;5049224;28;20037;-69
2021/01/11 17:42:13;;;;;;;5.43;2.35;;;;;;;;;;5044396;28;20033;-71
2021/01/11 17:44:39;;;;;;;4.10;2.50;;;;;;;;;;5048945;28;20122;-71
2021/01/11 17:47:04;;;;;;;4.68;1.73;;;;;;;;;;5041503;28;20441;-71
2021/01/11 17:49:29;;;;;;;4.50;2.15;;;;;;;;;;5048953;28;20071;-71
2021/01/11 17:51:55;;;;;;;4.93;2.55;;;;;;;;;;5030194;28;20045;-71
2021/01/11 17:54:20;;;;;;;6.68;2.47;;;;;;;;;;5042712;28;20037;-70
2021/01/11 17:56:45;;;;;;;6.35;2.70;;;;;;;;;;5038113;28;20032;-71
2021/01/11 17:59:10;;;;;;;7.55;2.67;;;;;;;;;;5041735;28;20072;-70
2021/01/11 18:01:38;;;;;;;4.57;2.70;;;;;;;;;;5038549;28;20024;-70
2021/01/11 18:04:03;;;;;;;6.45;3.00;;;;;;;;;;5048723;28;20037;-72
2021/01/11 18:06:32;;;;;;;5.97;3.35;;;;;;;;;;5044919;28;20047;-71
2021/01/11 18:08:58;;;;;;;7.13;3.17;;;;;;;;;;5048273;28;20040;-71
2021/01/11 18:11:23;;;;;;;6.60;2.95;;;;;;;;;;5049106;28;20084;-71
2021/01/11 18:13:49;;;;;;;6.65;2.90;;;;;;;;;;5038028;28;20064;-71
2021/01/11 18:16:14;;;;;;;11.13;3.35;;;;;;;;;;5030313;28;20024;-71
2021/01/11 18:18:39;;;;;;;9.65;2.88;;;;;;;;;;5037734;28;20106;-70
2021/01/11 18:21:08;;;;;;;7.75;2.83;;;;;;;;;;5035736;28;20037;-70
2021/01/11 18:23:33;;;;;;;12.20;2.97;;;;;;;;;;5014785;28;20044;-70
2021/01/11 18:25:59;;;;;;;7.50;2.88;;;;;;;;;;5037188;28;20033;-70
2021/01/11 18:28:24;;;;;;;12.15;3.58;;;;;;;;;;5044802;28;20448;-70
2021/01/11 18:30:49;;;;;;;7.55;2.45;;;;;;;;;;5043437;28;20130;-71
2021/01/11 18:33:15;;;;;;;6.93;3.17;;;;;;;;;;5031842;28;20076;-71
2021/01/11 18:35:40;;;;;;;8.45;2.80;;;;;;;;;;5021475;28;20392;-71
2021/01/11 18:38:05;;;;;;;9.07;2.75;;;;;;;;;;5017312;28;20992;-70
2021/01/11 18:40:31;;;;;;;7.55;3.13;;;;;;;;;;5024383;28;20045;-70
2021/01/11 18:42:56;;;;;;;12.98;4.05;;;;;;;;;;5021435;28;20521;-71
2021/01/11 18:45:24;;;;;;;12.07;5.05;;;;;;;;;;5016628;28;20394;-71
2021/01/11 18:47:49;;;;;;;12.75;3.92;;;;;;;;;;5036200;28;20059;-71
2021/01/11 18:50:15;;;;;;;10.13;4.45;;;;;;;;;;5017348;28;20549;-71
2021/01/11 18:52:41;;;;;;;12.07;5.60;;;;;;;;;;5035646;28;20029;-71
2021/01/11 18:55:06;;;;;;;11.63;5.63;;;;;;;;;;5048835;28;20032;-71
2021/01/11 18:57:31;;;;;;;9.07;4.10;;;;;;;;;;5041743;28;20037;-70
2021/01/11 18:59:57;;;;;;;8.68;3.75;;;;;;;;;;5044204;28;20033;-71
2021/01/11 19:02:22;;;;;;;10.65;4.30;;;;;;;;;;5030046;28;20601;-71
2021/01/11 19:04:47;;;;;;;9.13;3.10;;;;;;;;;;5031867;28;20535;-71
2021/01/11 19:07:16;;;;;;;8.98;3.42;;;;;;;;;;5027304;28;20045;-70
2021/01/11 19:09:41;;;;;;;11.57;3.65;;;;;;;;;;5027801;28;20056;-71
2021/01/11 19:12:06;;;;;;;9.35;3.65;;;;;;;;;;5030061;28;20045;-70
2021/01/11 19:14:32;;;;;;;14.23;3.78;;;;;;;;;;5034127;28;20029;-70
2021/01/11 19:16:57;;;;;;;11.10;4.18;;;;;;;;;;5048256;28;20521;-71
2021/01/11 19:19:22;;;;;;;8.77;3.78;;;;;;;;;;5035766;28;20045;-71
2021/01/11 19:21:50;;;;;;;9.65;4.38;;;;;;;;;;5030180;28;20716;-70
2021/01/11 19:24:15;;;;;;;10.88;4.03;;;;;;;;;;5031734;28;20029;-70
2021/01/11 19:26:41;;;;;;;10.27;4.40;;;;;;;;;;5030561;28;20033;-71
2021/01/11 19:29:07;;;;;;;18.30;10.23;;;;;;;;;;5034226;28;20029;-70
2021/01/11 19:31:32;;;;;;;18.55;8.93;;;;;;;;;;5048633;28;20025;-71
2021/01/11 19:33:58;;;;;;;17.20;7.60;;;;;;;;;;5032488;28;20037;-70
2021/01/11 19:36:24;;;;;;;19.27;8.13;;;;;;;;;;5030388;28;20025;-70
2021/01/11 19:38:49;;;;;;;17.25;8.40;;;;;;;;;;5028250;28;20055;-71
2021/01/11 19:41:15;;;;;;;22.38;6.93;;;;;;;;;;5035311;28;20397;-70
2021/01/11 19:43:40;;;;;;;17.30;7.18;;;;;;;;;;5048769;28;20393;-71
2021/01/11 19:46:05;;;;;;;14.93;5.78;;;;;;;;;;5047676;28;20127;-71
2021/01/11 19:48:31;;;;;;;19.60;6.90;;;;;;;;;;5043371;28;20041;-70
2021/01/11 19:50:56;;;;;;;9.82;3.50;;;;;;;;;;5030094;28;20159;-70
2021/01/11 19:53:21;;;;;;;7.90;3.70;;;;;;;;;;5022900;28;20040;-69
2021/01/11 19:55:47;;;;;;;11.85;3.88;;;;;;;;;;5020043;28;20033;-70
2021/01/11 19:58:12;;;;;;;10.95;4.68;;;;;;;;;;5025265;28;20021;-70
2021/01/11 20:00:37;;;;;;;11.45;4.25;;;;;;;;;;5027267;28;20052;-71
2021/01/11 20:03:02;;;;;;;6.80;3.28;;;;;;;;;;5030158;28;20033;-71
2021/01/11 20:05:28;;;;;;;6.60;3.33;;;;;;;;;;5044849;28;20047;-71
2021/01/11 20:07:53;;;;;;;7.80;3.85;;;;;;;;;;5050541;28;20128;-71
2021/01/11 20:10:22;;;;;;;19.40;5.78;;;;;;;;;;5018038;28;20061;-71
2021/01/11 20:12:47;;;;;;;11.80;4.05;;;;;;;;;;5024147;28;20609;-71
2021/01/11 20:15:13;;;;;;;12.25;5.18;;;;;;;;;;5036848;28;20062;-71
2021/01/11 20:17:40;;;;;;;10.75;3.60;;;;;;;;;;5031557;28;20029;-71
2021/01/11 20:20:09;;;;;;;10.75;4.50;;;;;;;;;;5046647;28;20033;-71
2021/01/11 20:22:38;;;;;;;8.05;3.97;;;;;;;;;;5046506;28;20033;-71
2021/01/11 20:25:03;;;;;;;10.98;3.15;;;;;;;;;;5047360;28;20033;-71
2021/01/11 20:27:29;;;;;;;9.05;3.28;;;;;;;;;;5045134;28;20037;-72
2021/01/11 20:29:54;;;;;;;13.75;4.30;;;;;;;;;;5045573;28;20033;-71
2021/01/11 20:32:19;;;;;;;8.77;3.67;;;;;;;;;;5048125;28;20033;-71
2021/01/11 20:34:44;;;;;;;9.18;3.53;;;;;;;;;;5045716;28;20025;-71
2021/01/11 20:37:10;;;;;;;13.35;4.00;;;;;;;;;;5041205;28;20029;-71
2021/01/11 20:39:36;;;;;;;9.32;3.17;;;;;;;;;;5041268;28;20056;-71
2021/01/11 20:42:01;;;;;;;9.60;3.30;;;;;;;;;;5031808;28;20024;-71
2021/01/11 20:44:26;;;;;;;14.02;4.25;;;;;;;;;;5048121;28;20123;-71
2021/01/11 20:46:57;;;;;;;10.60;4.53;;;;;;;;;;5048367;28;20480;-70
2021/01/11 20:49:22;;;;;;;16.35;5.25;;;;;;;;;;5042955;28;20162;-71
2021/01/11 20:51:48;;;;;;;7.30;2.70;;;;;;;;;;5041710;28;20116;-71
2021/01/11 20:54:14;;;;;;;9.13;3.03;;;;;;;;;;5028895;28;20049;-71
2021/01/11 20:56:40;;;;;;;8.05;2.88;;;;;;;;;;5028838;28;20026;-71
2021/01/11 20:59:05;;;;;;;10.15;4.55;;;;;;;;;;5029704;28;20029;-71
2021/01/11 21:01:32;;;;;;;7.40;2.58;;;;;;;;;;5028837;28;20052;-71
2021/01/11 21:03:58;;;;;;;6.60;2.45;;;;;;;;;;5030232;28;20052;-71
2021/01/11 21:06:23;;;;;;;10.55;3.40;;;;;;;;;;5027458;28;20394;-71
2021/01/11 21:08:48;;;;;;;5.97;3.58;;;;;;;;;;5035963;28;20086;-71
2021/01/11 21:11:14;;;;;;;9.95;2.58;;;;;;;;;;5035480;28;20045;-71
2021/01/11 21:13:40;;;;;;;6.18;2.72;;;;;;;;;;5032081;28;20034;-71
2021/01/11 21:16:09;;;;;;;8.88;2.88;;;;;;;;;;5030587;28;20103;-71
2021/01/11 21:18:34;;;;;;;6.65;2.47;;;;;;;;;;5031384;28;20025;-71
2021/01/11 21:21:00;;;;;;;17.77;8.23;;;;;;;;;;5030354;28;20179;-71
2021/01/11 21:23:25;;;;;;;5.45;3.00;;;;;;;;;;5030925;28;20035;-70
2021/01/11 21:25:50;;;;;;;14.20;3.67;;;;;;;;;;5031208;28;20037;-71
2021/01/11 21:28:15;;;;;;;8.63;3.17;;;;;;;;;;5031020;28;20053;-71
2021/01/11 21:30:41;;;;;;;11.13;4.28;;;;;;;;;;5031818;28;20421;-71
2021/01/11 21:33:06;;;;;;;4.18;2.30;;;;;;;;;;5019969;28;20052;-71
2021/01/11 21:35:31;;;;;;;11.75;3.45;;;;;;;;;;5027660;28;20046;-72
2021/01/11 21:37:59;;;;;;;12.70;3.33;;;;;;;;;;5026302;28;20038;-70
2021/01/11 21:40:24;;;;;;;7.65;3.30;;;;;;;;;;5027119;28;20474;-71
2021/01/11 21:42:49;;;;;;;9.00;3.35;;;;;;;;;;5029234;28;20037;-71
2021/01/11 21:45:15;;;;;;;8.98;3.67;;;;;;;;;;5028881;28;20029;-71
2021/01/11 21:47:40;;;;;;;8.45;3.45;;;;;;;;;;5027268;28;20029;-71
2021/01/11 21:50:06;;;;;;;16.80;4.30;;;;;;;;;;5028329;28;20059;-71
2021/01/11 21:52:31;;;;;;;9.05;3.72;;;;;;;;;;5028279;28;20108;-70
2021/01/11 21:54:56;;;;;;;12.77;3.90;;;;;;;;;;5028068;28;20068;-71
2021/01/11 21:57:24;;;;;;;10.38;3.70;;;;;;;;;;5060971;28;20053;-71
2021/01/11 21:59:49;;;;;;;11.32;3.10;;;;;;;;;;5027765;28;20116;-71
2021/01/11 22:02:14;;;;;;;8.50;3.78;;;;;;;;;;5028125;28;20104;-71
2021/01/11 22:04:40;;;;;;;14.07;4.03;;;;;;;;;;5028939;28;20038;-71
2021/01/11 22:07:05;;;;;;;13.27;3.47;;;;;;;;;;5028630;28;20159;-71
2021/01/11 22:09:30;;;;;;;12.32;3.65;;;;;;;;;;5027021;28;20042;-72
2021/01/11 22:11:55;;;;;;;13.88;3.80;;;;;;;;;;5027918;28;20029;-71
2021/01/11 22:14:21;;;;;;;15.30;4.05;;;;;;;;;;5028527;28;20413;-71
2021/01/11 22:16:55;;;;;;;11.65;2.65;;;;;;;;;;5026242;28;20045;-71
2021/01/11 22:19:22;;;;;;;16.33;3.50;;;;;;;;;;5028500;28;20048;-70
2021/01/11 22:21:50;;;;;;;12.10;3.03;;;;;;;;;;5023417;28;20030;-71
2021/01/11 22:24:16;;;;;;;10.15;2.85;;;;;;;;;;5031031;28;20025;-71
2021/01/11 22:26:42;;;;;;;14.70;2.67;;;;;;;;;;5036768;28;20035;-71
2021/01/11 22:29:08;;;;;;;9.50;2.50;;;;;;;;;;5036365;28;20097;-71
2021/01/11 22:31:33;;;;;;;11.88;2.70;;;;;;;;;;5040578;28;20167;-71
2021/01/11 22:33:58;;;;;;;11.00;2.40;;;;;;;;;;5047983;28;20033;-71
2021/01/11 22:36:23;;;;;;;13.82;2.72;;;;;;;;;;5036165;28;20041;-71
2021/01/11 22:38:49;;;;;;;15.77;2.50;;;;;;;;;;5045319;28;20059;-71
2021/01/11 22:41:14;;;;;;;11.80;2.22;;;;;;;;;;5037806;28;20037;-71
2021/01/11 22:43:40;;;;;;;14.55;2.78;;;;;;;;;;5043160;28;20044;-71
2021/01/11 22:46:05;;;;;;;9.20;2.25;;;;;;;;;;5051171;28;20035;-71
2021/01/11 22:48:30;;;;;;;12.07;2.45;;;;;;;;;;5051604;28;20386;-71
2021/01/11 22:50:55;;;;;;;5.50;1.98;;;;;;;;;;5042846;28;20032;-71
2021/01/11 22:53:21;;;;;;;7.35;2.33;;;;;;;;;;5039791;28;20029;-68
2021/01/11 22:55:47;;;;;;;10.35;2.05;;;;;;;;;;5039731;28;20498;-68
2021/01/11 22:58:13;;;;;;;7.40;1.90;;;;;;;;;;5041671;28;20041;-69
2021/01/11 23:00:38;;;;;;;7.88;2.28;;;;;;;;;;5023488;28;20036;-71
2021/01/11 23:03:04;;;;;;;8.38;2.50;;;;;;;;;;5050975;28;20099;-70
2021/01/11 23:05:29;;;;;;;12.30;2.30;;;;;;;;;;5044835;28;20033;-70
2021/01/11 23:07:54;;;;;;;8.45;2.30;;;;;;;;;;5044517;28;20025;-71
2021/01/11 23:10:22;;;;;;;11.43;2.03;;;;;;;;;;5035086;28;20482;-71
2021/01/11 23:12:47;;;;;;;9.57;2.38;;;;;;;;;;5033869;28;20044;-68
2021/01/11 23:15:13;;;;;;;7.80;1.65;;;;;;;;;;5034156;28;20021;-68
2021/01/11 23:17:41;;;;;;;13.95;2.90;;;;;;;;;;5034293;28;20469;-69
2021/01/11 23:20:07;;;;;;;9.15;2.20;;;;;;;;;;5034346;28;20057;-68
2021/01/11 23:22:33;;;;;;;12.70;2.40;;;;;;;;;;5034461;28;20025;-69
2021/01/11 23:24:58;;;;;;;14.85;2.47;;;;;;;;;;5034162;28;20053;-68
2021/01/11 23:27:26;;;;;;;7.22;1.67;;;;;;;;;;5034291;28;20029;-69
2021/01/11 23:29:51;;;;;;;8.32;1.90;;;;;;;;;;5034335;28;20083;-69
2021/01/11 23:32:16;;;;;;;9.57;1.83;;;;;;;;;;5033871;28;20417;-69
2021/01/11 23:34:42;;;;;;;9.68;2.30;;;;;;;;;;5034142;28;20040;-68
2021/01/11 23:37:07;;;;;;;9.88;1.90;;;;;;;;;;5033902;28;20367;-69
2021/01/11 23:39:32;;;;;;;6.75;1.80;;;;;;;;;;5034148;28;20026;-69